Time;durP1;ratioP1;P1;durP2;ratioP2;P2;SDS_P1;SDS_P2;PMS_P1;PMS_P2;Temp;Humidity;BMP_temperature;BMP_pressure;BME280_temperature;BME280_humidity;BME280_pressure;Samples;Min_cycle;Max_cycle;Signal;HPM_P1;HPM_P2
2021/10/24 00:00:51;;;;;;;7.55;2.90;;;;;;;5.16;79.20;101508.00;10474325;28;20095;-73
2021/10/24 00:05:54;;;;;;;8.15;3.13;;;;;;;5.10;79.43;101497.50;10473674;28;20048;-73
2021/10/24 00:10:56;;;;;;;7.97;3.15;;;;;;;4.77;80.80;101501.34;10455398;28;20098;-73
2021/10/24 00:15:59;;;;;;;4.63;2.42;;;;;;;4.58;81.66;101500.19;10476421;28;20143;-73
2021/10/24 00:21:01;;;;;;;5.45;3.03;;;;;;;4.43;82.06;101503.44;10456695;28;20409;-73
2021/10/24 00:26:03;;;;;;;6.95;4.20;;;;;;;4.43;82.35;101513.84;10466694;28;20091;-73
2021/10/24 00:31:06;;;;;;;6.78;4.22;;;;;;;4.57;81.09;101514.09;10465940;28;20041;-74
2021/10/24 00:36:08;;;;;;;10.90;4.97;;;;;;;4.36;82.09;101518.91;10451643;28;20103;-74
2021/10/24 00:41:10;;;;;;;6.68;3.75;;;;;;;4.32;81.80;101537.94;10464131;28;20045;-74
2021/10/24 00:46:11;;;;;;;7.05;4.75;;;;;;;4.46;81.84;101526.91;10445917;28;20059;-73
2021/10/24 00:51:33;;;;;;;5.40;3.80;;;;;;;4.28;80.83;101527.47;10464952;28;20041;-73
2021/10/24 00:56:40;;;;;;;5.60;4.30;;;;;;;4.01;82.41;101525.22;10468148;28;20041;-73
2021/10/24 01:01:42;;;;;;;5.15;3.97;;;;;;;4.05;82.72;101513.16;10466165;28;20045;-73
2021/10/24 01:06:45;;;;;;;5.63;4.25;;;;;;;4.15;82.28;101516.81;10445737;28;20106;-74
2021/10/24 01:11:54;;;;;;;8.50;5.13;;;;;;;3.84;83.49;101518.81;10448707;28;20041;-73
2021/10/24 01:16:56;;;;;;;5.10;4.60;;;;;;;4.00;83.35;101527.81;10464704;28;20048;-74
2021/10/24 01:21:58;;;;;;;9.13;4.88;;;;;;;3.83;83.36;101518.81;10447886;28;20072;-73
2021/10/24 01:26:59;;;;;;;9.40;4.97;;;;;;;3.70;82.40;101526.38;10445196;28;20049;-73
2021/10/24 01:32:01;;;;;;;5.10;4.53;;;;;;;3.53;83.46;101527.75;10462517;28;20487;-73
2021/10/24 01:37:03;;;;;;;9.05;4.90;;;;;;;3.45;83.15;101524.09;10444653;28;20045;-73
2021/10/24 01:42:07;;;;;;;8.32;4.82;;;;;;;3.35;83.30;101528.22;10446048;28;20056;-73
2021/10/24 01:47:09;;;;;;;11.85;4.97;;;;;;;3.22;83.88;101524.47;10444381;28;20045;-73
2021/10/24 01:52:12;;;;;;;7.70;5.10;;;;;;;3.13;83.61;101519.09;10445349;28;20093;-73
2021/10/24 01:57:14;;;;;;;8.70;5.28;;;;;;;3.21;83.04;101521.84;10427946;28;20049;-74
2021/10/24 02:02:16;;;;;;;6.72;4.68;;;;;;;3.28;81.82;101523.75;10445268;28;20044;-73
2021/10/24 02:07:41;;;;;;;4.75;3.42;;;;;;;3.12;82.63;101514.75;10431213;28;20135;-72
2021/10/24 02:12:47;;;;;;;6.28;4.20;;;;;;;3.16;82.08;101508.78;10444396;28;20041;-73
2021/10/24 02:17:54;;;;;;;6.72;5.32;;;;;;;2.85;83.44;101506.31;10442761;28;20131;-73
2021/10/24 02:23:01;;;;;;;8.90;4.63;;;;;;;2.93;83.69;101513.47;10443990;28;20128;-73
2021/10/24 02:28:04;;;;;;;5.75;4.07;;;;;;;2.80;83.67;101519.22;10460521;28;20044;-73
2021/10/24 02:33:05;;;;;;;5.85;3.55;;;;;;;2.65;84.18;101511.91;10460668;28;20048;-73
2021/10/24 02:38:33;;;;;;;6.80;3.70;;;;;;;2.73;83.87;101506.91;10459877;28;20053;-73
2021/10/24 02:43:35;;;;;;;4.65;3.30;;;;;;;2.67;84.18;101501.59;10443060;28;20067;-73
2021/10/24 02:48:37;;;;;;;5.70;3.47;;;;;;;2.57;83.62;101505.69;10426873;28;20053;-73
2021/10/24 02:53:39;;;;;;;7.25;3.83;;;;;;;2.77;82.22;101500.94;10442630;28;20068;-73
2021/10/24 02:58:41;;;;;;;6.15;3.60;;;;;;;2.65;82.06;101511.03;10441823;28;20049;-73
2021/10/24 03:03:43;;;;;;;5.38;3.92;;;;;;;2.75;82.89;101507.84;10440910;28;20033;-72
2021/10/24 03:08:45;;;;;;;5.32;3.78;;;;;;;2.74;82.93;101516.44;10461879;28;20382;-73
2021/10/24 03:13:46;;;;;;;7.85;4.45;;;;;;;2.61;82.91;101512.72;10442431;28;20165;-73
2021/10/24 03:18:48;;;;;;;5.68;3.63;;;;;;;2.49;83.88;101520.19;10442532;28;20103;-72
2021/10/24 03:23:51;;;;;;;8.52;4.10;;;;;;;2.57;84.31;101520.34;10440994;28;20052;-72
2021/10/24 03:28:53;;;;;;;5.22;4.07;;;;;;;2.38;84.76;101519.03;10442143;28;20051;-72
2021/10/24 03:33:55;;;;;;;8.27;4.32;;;;;;;2.15;85.69;101528.81;10440677;28;20443;-73
2021/10/24 03:38:58;;;;;;;9.40;4.65;;;;;;;2.14;86.18;101534.84;10440619;28;20048;-74
2021/10/24 03:44:00;;;;;;;5.93;3.42;;;;;;;2.15;85.42;101527.09;10440583;28;20037;-73
2021/10/24 03:49:03;;;;;;;10.85;4.15;;;;;;;2.31;84.73;101536.16;10441525;28;20044;-73
2021/10/24 03:54:05;;;;;;;5.78;3.70;;;;;;;2.49;84.21;101535.75;10441182;28;20477;-73
2021/10/24 03:59:07;;;;;;;6.05;3.53;;;;;;;2.45;83.81;101533.91;10442771;28;20049;-73
2021/10/24 04:04:08;;;;;;;6.90;3.47;;;;;;;2.30;84.40;101539.56;10448755;28;20430;-73
2021/10/24 04:09:12;;;;;;;4.18;3.00;;;;;;;2.25;84.15;101536.00;10452607;28;20472;-73
2021/10/24 04:14:15;;;;;;;5.13;3.15;;;;;;;2.17;85.26;101524.53;10463016;22;20403;-74
2021/10/24 04:19:17;;;;;;;7.82;2.97;;;;;;;2.25;84.56;101523.88;10465276;28;20045;-74
2021/10/24 04:24:21;;;;;;;5.55;3.25;;;;;;;2.02;85.01;101525.88;10463705;28;20048;-74
2021/10/24 04:29:22;;;;;;;6.07;3.05;;;;;;;2.21;83.64;101521.19;10465503;28;20055;-74
2021/10/24 04:34:24;;;;;;;4.60;2.40;;;;;;;2.08;83.63;101524.28;10464018;28;20052;-74
2021/10/24 04:39:25;;;;;;;7.53;2.88;;;;;;;2.03;84.02;101518.97;10463789;28;20045;-74
2021/10/24 04:44:30;;;;;;;4.40;2.30;;;;;;;2.13;83.78;101521.00;10463032;28;20064;-75
2021/10/24 04:49:32;;;;;;;4.53;2.47;;;;;;;2.15;83.37;101527.09;10463580;28;20041;-75
2021/10/24 04:54:35;;;;;;;5.10;2.17;;;;;;;2.09;83.63;101515.69;10463773;28;20406;-75
2021/10/24 04:59:37;;;;;;;3.80;1.92;;;;;;;1.91;83.33;101521.28;10463694;28;20053;-75
2021/10/24 05:04:39;;;;;;;3.78;2.35;;;;;;;1.79;83.84;101514.03;10447357;28;20048;-74
2021/10/24 05:09:41;;;;;;;2.95;2.20;;;;;;;1.89;83.87;101516.03;10463239;28;20084;-73
2021/10/24 05:14:43;;;;;;;2.92;2.15;;;;;;;1.78;84.41;101514.88;10463294;28;20136;-73
2021/10/24 05:19:44;;;;;;;7.22;3.40;;;;;;;1.74;83.39;101520.78;10445987;28;20072;-74
2021/10/24 05:24:47;;;;;;;4.40;2.28;;;;;;;1.51;84.86;101518.44;10461816;28;20061;-74
2021/10/24 05:29:49;;;;;;;3.03;1.83;;;;;;;1.61;83.88;101516.09;10463392;28;20513;-74
2021/10/24 05:34:50;;;;;;;3.67;2.50;;;;;;;1.66;83.85;101517.09;10463600;28;20467;-75
2021/10/24 05:39:53;;;;;;;3.72;2.45;;;;;;;1.38;83.86;101513.72;10461559;28;20128;-75
2021/10/24 05:45:20;;;;;;;;;;;;;;;1.57;83.31;101520.31;10460373;28;20052;-72
2021/10/24 05:50:22;;;;;;;5.72;2.20;;;;;;;1.58;83.65;101516.00;10463049;28;19954;-74
2021/10/24 05:55:23;;;;;;;6.82;2.08;;;;;;;1.59;83.56;101520.34;10460473;28;20045;-74
2021/10/24 06:00:26;;;;;;;4.00;2.10;;;;;;;1.45;83.57;101528.59;10444345;28;20056;-74
2021/10/24 06:05:47;;;;;;;5.40;2.15;;;;;;;1.52;83.29;101524.50;10461315;28;20487;-74
2021/10/24 06:10:53;;;;;;;6.07;1.90;;;;;;;1.26;84.46;101527.19;10460985;28;20049;-74
2021/10/24 06:15:54;;;;;;;7.45;2.40;;;;;;;1.49;83.69;101543.41;10460857;28;20418;-74
2021/10/24 06:20:56;;;;;;;4.97;3.00;;;;;;;1.35;84.92;101543.84;10459249;28;20494;-73
2021/10/24 06:25:58;;;;;;;5.18;2.60;;;;;;;1.58;84.26;101542.78;10461016;28;20470;-74
2021/10/24 06:30:59;;;;;;;4.47;2.75;;;;;;;1.61;84.47;101542.91;10459908;28;20056;-75
2021/10/24 06:36:20;;;;;;;3.25;2.95;;;;;;;1.67;84.48;101550.84;10462463;28;20056;-73
2021/10/24 06:41:41;;;;;;;5.32;3.30;;;;;;;1.79;84.40;101546.84;10460051;28;20538;-73
2021/10/24 06:47:15;;;;;;;5.43;4.50;;;;;;;1.76;84.99;101550.22;10438086;28;20577;-75
2021/10/24 06:52:36;;;;;;;6.25;4.88;;;;;;;1.81;84.93;101543.44;10461039;28;20119;-74
2021/10/24 06:57:52;;;;;;;6.88;6.18;;;;;;;1.64;86.30;101550.78;10458832;28;20446;-75
2021/10/24 07:03:12;;;;;;;;;;;;;;;1.72;86.93;101550.97;10460258;28;20049;-73
2021/10/24 07:08:46;;;;;;;9.20;7.82;;;;;;;1.76;87.68;101539.84;10458937;28;19925;-74
2021/10/24 07:13:48;;;;;;;8.70;7.80;;;;;;;2.02;87.32;101543.16;10458180;28;20498;-75
2021/10/24 07:18:51;;;;;;;8.38;7.57;;;;;;;2.09;86.52;101545.09;10458338;28;20064;-73
2021/10/24 07:23:53;;;;;;;9.85;8.95;;;;;;;2.33;86.14;101538.78;10458679;28;20418;-73
2021/10/24 07:28:56;;;;;;;10.82;9.60;;;;;;;2.40;86.57;101535.53;10459277;28;20040;-74
2021/10/24 07:33:59;;;;;;;10.30;9.35;;;;;;;2.62;87.10;101531.75;10463311;28;20068;-74
2021/10/24 07:39:08;;;;;;;9.75;8.93;;;;;;;2.66;86.50;101537.06;10467399;28;20149;-74
2021/10/24 07:44:12;;;;;;;9.73;8.75;;;;;;;3.08;85.38;101535.41;10466853;28;20044;-73
2021/10/24 07:49:14;;;;;;;9.95;8.95;;;;;;;3.37;84.14;101542.16;10466426;28;20049;-75
2021/10/24 07:54:16;;;;;;;10.48;8.93;;;;;;;3.41;84.17;101530.97;10466138;28;20446;-73
2021/10/24 07:59:20;;;;;;;10.98;9.98;;;;;;;3.57;84.08;101536.50;10466152;28;20045;-73
2021/10/24 08:04:22;;;;;;;9.23;8.43;;;;;;;3.60;84.49;101533.97;10465444;28;20127;-74
2021/10/24 08:09:24;;;;;;;9.75;8.75;;;;;;;3.71;85.06;101527.25;10449612;28;20045;-74
2021/10/24 08:14:26;;;;;;;9.05;8.20;;;;;;;3.99;84.02;101528.69;10448851;28;20060;-75
2021/10/24 08:19:30;;;;;;;11.10;8.23;;;;;;;4.13;84.26;101529.81;10464937;28;20072;-75
2021/10/24 08:24:35;;;;;;;9.27;7.80;;;;;;;4.46;83.29;101519.09;10464324;28;20047;-74
2021/10/24 08:30:09;;;;;;;10.27;7.57;;;;;;;4.82;82.20;101507.50;10455595;28;20514;-73
2021/10/24 08:35:18;;;;;;;7.78;6.97;;;;;;;5.10;80.78;101515.75;10463596;28;20055;-73
2021/10/24 08:40:20;;;;;;;7.65;6.03;;;;;;;5.34;79.67;101504.78;10465104;28;20041;-73
2021/10/24 08:45:23;;;;;;;8.43;6.65;;;;;;;5.43;79.36;101497.94;10463314;28;20060;-73
2021/10/24 08:50:25;;;;;;;7.55;5.88;;;;;;;5.56;79.22;101498.97;10463828;28;20083;-73
2021/10/24 08:55:26;;;;;;;6.90;6.20;;;;;;;6.07;76.82;101490.88;10463228;28;20481;-73
2021/10/24 09:00:28;;;;;;;6.13;5.53;;;;;;;6.06;77.95;101490.84;10463320;28;20045;-74
2021/10/24 09:05:34;;;;;;;6.70;5.07;;;;;;;6.42;75.72;101482.50;10449327;28;20045;-74
2021/10/24 09:10:48;;;;;;;7.32;5.28;;;;;;;6.70;74.79;101486.19;10461418;28;20041;-73
2021/10/24 09:16:06;;;;;;;7.55;5.30;;;;;;;6.74;74.62;101477.53;10462403;28;20442;-74
2021/10/24 09:21:14;;;;;;;5.68;4.75;;;;;;;6.77;74.94;101466.19;10432741;28;20042;-74
2021/10/24 09:26:27;;;;;;;7.28;5.03;;;;;;;7.14;73.70;101466.44;10421439;28;20053;-74
2021/10/24 09:31:33;;;;;;;11.02;5.50;;;;;;;7.62;71.91;101457.91;10421135;28;20038;-74
2021/10/24 09:36:58;;;;;;;9.33;5.10;;;;;;;7.66;71.71;101451.81;10434481;28;20080;-74
2021/10/24 09:42:27;;;;;;;6.55;3.72;;;;;;;7.99;70.12;101439.66;10448750;28;20044;-74
2021/10/24 09:47:29;;;;;;;5.85;4.47;;;;;;;8.25;69.33;101437.06;10461154;28;20123;-74
2021/10/24 09:52:32;;;;;;;5.22;3.50;;;;;;;8.38;68.53;101423.13;10461148;28;20045;-75
2021/10/24 09:57:40;;;;;;;5.57;3.17;;;;;;;8.87;66.85;101417.81;10461165;28;20370;-74
2021/10/24 10:02:43;;;;;;;6.65;3.35;;;;;;;9.15;65.02;101415.06;10460418;28;20048;-74
2021/10/24 10:07:45;;;;;;;7.97;4.03;;;;;;;9.42;64.78;101401.81;10460730;28;20055;-74
2021/10/24 10:12:49;;;;;;;6.25;3.72;;;;;;;10.23;61.47;101400.44;10460905;28;20094;-75
2021/10/24 10:18:01;;;;;;;5.28;2.92;;;;;;;10.82;59.13;101391.97;10472123;22;20572;-72
2021/10/24 10:23:06;;;;;;;5.75;3.05;;;;;;;11.14;57.53;101382.81;10456384;28;20037;-72
2021/10/24 10:28:11;;;;;;;7.38;3.78;;;;;;;11.62;55.65;101368.13;10457570;28;20151;-72
2021/10/24 10:33:33;;;;;;;5.07;2.95;;;;;;;11.95;54.91;101365.88;10457108;28;20049;-72
2021/10/24 10:38:41;;;;;;;6.43;3.20;;;;;;;12.15;53.68;101356.78;10457762;28;20096;-71
2021/10/24 10:44:04;;;;;;;4.72;2.15;;;;;;;12.30;53.64;101349.47;10439358;28;20041;-72
2021/10/24 10:49:21;;;;;;;5.97;3.00;;;;;;;12.06;53.59;101342.88;10456854;28;20044;-71
2021/10/24 10:54:57;;;;;;;4.18;2.33;;;;;;;12.10;53.40;101336.66;10437879;28;20124;-72
2021/10/24 11:00:19;;;;;;;6.45;1.90;;;;;;;12.67;51.24;101321.53;10472705;28;20132;-72
2021/10/24 11:05:40;;;;;;;2.22;1.20;;;;;;;13.31;47.84;101312.28;10499673;28;20056;-71
2021/10/24 11:10:46;;;;;;;3.20;1.50;;;;;;;13.34;48.08;101304.28;10481502;28;20049;-71
2021/10/24 11:15:50;;;;;;;5.50;1.70;;;;;;;13.33;46.56;101298.16;10482349;28;20040;-71
2021/10/24 11:20:52;;;;;;;2.83;1.38;;;;;;;13.33;47.75;101294.63;10497381;28;20486;-71
2021/10/24 11:25:53;;;;;;;4.43;1.70;;;;;;;13.06;47.65;101289.03;10497811;28;20119;-71
2021/10/24 11:31:07;;;;;;;4.93;2.15;;;;;;;13.16;46.87;101288.84;10497012;28;20052;-72
2021/10/24 11:36:09;;;;;;;3.13;1.67;;;;;;;13.27;47.58;101278.91;10497530;28;20107;-70
2021/10/24 11:41:20;;;;;;;4.10;1.95;;;;;;;13.51;45.13;101274.84;10496978;28;20044;-71
2021/10/24 11:46:21;;;;;;;3.38;1.50;;;;;;;12.86;47.41;101270.13;10478059;28;20410;-70
2021/10/24 11:51:23;;;;;;;4.70;2.15;;;;;;;12.78;47.32;101264.13;10478935;28;20051;-71
2021/10/24 12:01:35;;;;;;;3.47;1.92;;;;;;;12.00;47.08;101261.28;10496993;28;20094;-70
2021/10/24 12:07:06;;;;;;;3.75;2.05;;;;;;;11.61;47.60;101253.13;10496145;28;20094;-69
2021/10/24 12:12:08;;;;;;;4.93;2.10;;;;;;;11.69;47.71;101254.78;10431345;28;20406;-69
2021/10/24 12:17:19;;;;;;;3.75;1.75;;;;;;;11.56;46.87;101259.38;10435663;28;20052;-68
2021/10/24 12:22:20;;;;;;;2.85;1.60;;;;;;;11.53;46.53;101254.16;10416933;28;20049;-70
2021/10/24 12:27:35;;;;;;;4.10;1.70;;;;;;;11.21;46.54;101239.72;10462182;28;20068;-69
2021/10/24 12:32:53;;;;;;;2.92;1.30;;;;;;;11.23;46.44;101234.44;10445689;28;20075;-68
2021/10/24 12:38:00;;;;;;;1.92;1.40;;;;;;;11.15;45.91;101231.91;10444047;28;20049;-68
2021/10/24 12:43:12;;;;;;;4.57;1.20;;;;;;;11.29;45.80;101224.69;10461451;28;20041;-69
2021/10/24 12:48:14;;;;;;;2.83;1.10;;;;;;;11.33;45.34;101217.59;10461874;28;20128;-69
2021/10/24 12:53:18;;;;;;;2.20;1.15;;;;;;;11.08;46.52;101207.47;10462152;28;20049;-69
2021/10/24 12:58:20;;;;;;;2.67;1.33;;;;;;;11.32;45.48;101205.34;10443431;28;20466;-69
2021/10/24 13:03:21;;;;;;;2.33;1.52;;;;;;;11.39;45.42;101196.47;10460943;28;20154;-70
2021/10/24 13:08:23;;;;;;;3.92;1.90;;;;;;;11.04;45.44;101190.00;10460584;28;20080;-69
2021/10/24 13:13:25;;;;;;;3.75;1.77;;;;;;;11.03;45.58;101184.75;10460286;28;20413;-69
2021/10/24 13:18:26;;;;;;;3.08;1.67;;;;;;;10.90;45.84;101183.22;10442069;28;20045;-68
2021/10/24 13:23:28;;;;;;;3.17;2.10;;;;;;;10.97;46.53;101175.19;10459785;28;20041;-69
2021/10/24 13:28:29;;;;;;;5.75;2.00;;;;;;;11.09;45.76;101168.88;10460085;28;20045;-69
2021/10/24 13:33:31;;;;;;;4.90;3.05;;;;;;;10.85;45.62;101159.59;10460012;28;20434;-69
2021/10/24 13:38:34;;;;;;;4.20;2.33;;;;;;;10.74;46.34;101153.63;10442019;28;20045;-69
2021/10/24 13:43:35;;;;;;;5.22;3.03;;;;;;;10.72;46.95;101147.53;10459044;28;20533;-69
2021/10/24 13:48:40;;;;;;;4.38;3.05;;;;;;;10.75;46.84;101147.44;10459389;28;20087;-68
2021/10/24 13:53:41;;;;;;;6.03;3.30;;;;;;;10.78;46.77;101150.06;10459322;28;20037;-70
2021/10/24 13:58:43;;;;;;;3.92;3.17;;;;;;;10.87;46.15;101142.03;10441528;28;20063;-69
2021/10/24 14:03:52;;;;;;;4.35;3.25;;;;;;;10.75;46.75;101140.44;10458232;28;20041;-68
2021/10/24 14:08:54;;;;;;;7.78;3.70;;;;;;;10.90;45.52;101136.72;10457964;28;20128;-69
2021/10/24 14:13:56;;;;;;;6.07;4.28;;;;;;;10.84;46.11;101147.31;10457640;28;20445;-68
2021/10/24 14:18:58;;;;;;;5.90;3.88;;;;;;;10.68;46.65;101136.19;10440010;28;20521;-70
2021/10/24 14:23:59;;;;;;;5.15;4.35;;;;;;;10.66;46.65;101135.31;10439463;28;20059;-69
2021/10/24 14:29:01;;;;;;;6.65;4.10;;;;;;;10.38;47.43;101131.34;10457343;28;20490;-68
2021/10/24 14:34:03;;;;;;;4.97;3.70;;;;;;;10.41;47.79;101124.28;10457056;28;20052;-68
2021/10/24 14:39:06;;;;;;;4.63;2.90;;;;;;;10.30;47.57;101123.56;10457248;28;20494;-67
2021/10/24 14:44:07;;;;;;;4.57;2.63;;;;;;;10.37;47.91;101117.34;10439566;28;20048;-69
2021/10/24 14:49:09;;;;;;;4.50;2.50;;;;;;;10.29;47.56;101127.06;10456698;28;20045;-69
2021/10/24 14:54:11;;;;;;;3.97;2.50;;;;;;;10.22;47.82;101120.13;10456614;28;20387;-69
2021/10/24 14:59:13;;;;;;;6.18;4.57;;;;;;;10.01;48.23;101116.88;10456323;28;20094;-68
2021/10/24 15:04:14;;;;;;;6.53;2.90;;;;;;;9.89;48.77;101109.16;10471710;28;20099;-69
2021/10/24 15:09:16;;;;;;;5.32;2.47;;;;;;;10.02;48.83;101104.63;10456465;28;20052;-68
2021/10/24 15:14:18;;;;;;;7.60;5.53;;;;;;;9.92;49.37;101095.13;10456103;28;20059;-69
2021/10/24 15:24:27;;;;;;;3.25;2.55;;;;;;;9.47;51.45;101094.72;10456010;28;20449;-69
2021/10/24 15:29:29;;;;;;;9.68;7.78;;;;;;;9.48;51.25;101076.34;10456506;28;20095;-70
2021/10/24 15:34:34;;;;;;;6.15;4.40;;;;;;;9.53;52.06;101082.41;10457101;28;20057;-70
2021/10/24 15:39:35;;;;;;;5.05;3.75;;;;;;;9.60;52.10;101070.94;10457611;28;20135;-69
2021/10/24 15:44:39;;;;;;;8.05;4.43;;;;;;;9.37;52.92;101077.34;10439891;28;20490;-70
2021/10/24 15:49:41;;;;;;;7.30;5.45;;;;;;;9.19;53.72;101068.78;10457326;28;20091;-70
2021/10/24 15:54:43;;;;;;;7.05;4.85;;;;;;;9.05;54.37;101068.91;10460406;28;20115;-69
2021/10/24 15:59:45;;;;;;;6.70;5.15;;;;;;;8.86;55.29;101067.34;10464634;28;20460;-70
2021/10/24 16:04:47;;;;;;;6.13;5.53;;;;;;;8.70;55.89;101070.94;10464908;28;20033;-70
2021/10/24 16:09:49;;;;;;;7.03;5.65;;;;;;;8.50;56.62;101069.34;10446517;28;20051;-69
2021/10/24 16:14:57;;;;;;;8.30;6.72;;;;;;;8.41;57.05;101064.16;10472265;23;20103;31
2021/10/24 16:19:59;;;;;;;7.95;6.28;;;;;;;8.39;58.20;101062.44;10421851;28;20061;-73
2021/10/24 16:25:01;;;;;;;7.90;6.30;;;;;;;8.34;57.57;101062.41;10423932;28;20042;-73
2021/10/24 16:30:04;;;;;;;9.30;6.75;;;;;;;8.28;58.07;101049.38;10439968;28;20049;-73
2021/10/24 16:35:07;;;;;;;8.20;6.80;;;;;;;8.18;58.34;101037.19;10423862;28;20045;-72
2021/10/24 16:40:14;;;;;;;7.55;6.30;;;;;;;7.89;59.29;101040.84;10422464;28;20053;-73
2021/10/24 16:45:17;;;;;;;7.53;6.20;;;;;;;7.63;60.22;101029.63;10423520;28;20033;-71
2021/10/24 16:50:23;;;;;;;8.57;6.50;;;;;;;7.43;61.30;101032.28;10405576;28;20056;-73
2021/10/24 16:55:28;;;;;;;9.05;6.93;;;;;;;7.51;61.30;101028.78;10423445;28;20092;-72
2021/10/24 17:00:35;;;;;;;13.85;8.55;;;;;;;7.68;61.20;101013.00;10422419;28;20048;-72
2021/10/24 17:05:38;;;;;;;10.40;8.80;;;;;;;7.48;61.92;101009.59;10436548;28;20092;-73
2021/10/24 17:10:40;;;;;;;7.47;6.45;;;;;;;7.39;61.94;101004.41;10421708;28;20050;-71
2021/10/24 17:15:42;;;;;;;11.00;7.28;;;;;;;7.30;62.23;101005.28;10427276;28;20049;-72
2021/10/24 17:20:45;;;;;;;10.55;7.45;;;;;;;7.01;63.44;101000.16;10462109;28;20542;-72
2021/10/24 17:25:46;;;;;;;8.35;6.78;;;;;;;6.73;64.33;100999.28;10462458;28;20036;-72
2021/10/24 17:30:49;;;;;;;8.70;7.60;;;;;;;6.61;65.28;101000.19;10461606;28;20052;-73
2021/10/24 17:35:51;;;;;;;9.00;8.02;;;;;;;6.36;65.90;100996.69;10463258;28;20106;-72
2021/10/24 17:40:53;;;;;;;10.05;8.07;;;;;;;6.30;66.58;100994.06;10463377;28;20053;-72
2021/10/24 17:45:55;;;;;;;10.90;8.93;;;;;;;6.18;67.01;100986.22;10463056;28;20045;-72
2021/10/24 17:50:57;;;;;;;9.00;8.05;;;;;;;5.97;67.75;100980.09;10462049;28;20056;-72
2021/10/24 17:55:59;;;;;;;10.25;9.05;;;;;;;5.90;67.89;100983.53;10462619;28;20059;-72
2021/10/24 18:01:00;;;;;;;9.27;8.20;;;;;;;5.80;68.16;100976.56;10461256;28;20057;-71
2021/10/24 18:06:02;;;;;;;12.02;8.68;;;;;;;5.97;68.46;100967.03;10459993;28;20048;-72
2021/10/24 18:11:05;;;;;;;10.65;8.48;;;;;;;5.98;68.52;100973.16;10459278;28;20076;-73
2021/10/24 18:16:08;;;;;;;8.85;7.85;;;;;;;5.83;68.60;100971.31;10459912;28;20087;-73
2021/10/24 18:21:10;;;;;;;11.02;8.57;;;;;;;5.98;68.45;100968.81;10461462;28;20079;-72
2021/10/24 18:26:18;;;;;;;9.48;7.53;;;;;;;5.65;69.51;100964.31;10461970;28;20103;-72
2021/10/24 18:31:21;;;;;;;9.02;8.00;;;;;;;5.45;69.65;100953.84;10460440;28;20556;-72
2021/10/24 18:36:23;;;;;;;7.93;6.32;;;;;;;5.20;70.54;100946.75;10460596;28;20052;-72
2021/10/24 18:41:24;;;;;;;9.25;7.43;;;;;;;5.09;70.81;100940.63;10459903;28;20414;-72
2021/10/24 18:46:26;;;;;;;7.18;6.07;;;;;;;5.05;71.35;100945.84;10458409;28;20045;-73
2021/10/24 18:51:33;;;;;;;8.70;6.00;;;;;;;5.14;71.76;100939.81;10459750;28;20045;-72
2021/10/24 18:56:35;;;;;;;9.25;6.57;;;;;;;5.16;71.95;100942.41;10458073;28;20494;-72
2021/10/24 19:01:37;;;;;;;14.57;7.32;;;;;;;5.45;70.72;100946.00;10460014;28;20054;-72
2021/10/24 19:06:40;;;;;;;9.55;7.00;;;;;;;5.37;70.25;100939.88;10459409;28;20129;-71
2021/10/24 19:11:42;;;;;;;12.10;7.63;;;;;;;5.14;71.17;100933.72;10457825;28;20055;-73
2021/10/24 19:16:44;;;;;;;12.77;8.02;;;;;;;5.03;71.24;100936.25;10458904;28;20037;-71
2021/10/24 19:21:46;;;;;;;9.18;7.18;;;;;;;4.96;71.32;100935.38;10458433;28;20045;-73
2021/10/24 19:26:48;;;;;;;14.30;7.63;;;;;;;4.72;72.12;100930.00;10458510;28;20064;-72
2021/10/24 19:31:49;;;;;;;8.10;6.68;;;;;;;4.55;72.88;100924.66;10465473;28;20513;-72
2021/10/24 19:36:51;;;;;;;8.65;7.50;;;;;;;4.52;73.14;100928.13;10467643;28;20454;-74
2021/10/24 19:41:53;;;;;;;8.82;7.78;;;;;;;4.34;73.61;100928.00;10466066;28;20056;-72
2021/10/24 19:46:54;;;;;;;9.60;7.72;;;;;;;4.24;74.17;100931.38;10467111;28;20178;-71
2021/10/24 19:52:04;;;;;;;10.00;7.82;;;;;;;4.14;74.22;100927.81;10467839;28;20045;-72
2021/10/24 19:57:07;;;;;;;8.82;7.72;;;;;;;4.05;74.71;100932.94;10465334;28;20049;-73
2021/10/24 20:02:10;;;;;;;10.30;8.00;;;;;;;3.90;75.17;100927.63;10464651;28;20067;-73
2021/10/24 20:07:13;;;;;;;10.23;7.68;;;;;;;3.71;75.91;100919.59;10464340;28;20067;-72
2021/10/24 20:12:15;;;;;;;10.32;8.07;;;;;;;3.85;75.30;100924.97;10466219;28;20048;-72
2021/10/24 20:17:18;;;;;;;9.30;8.35;;;;;;;3.74;75.59;100923.97;10464493;28;20140;-73
2021/10/24 20:22:20;;;;;;;8.60;7.70;;;;;;;3.53;76.08;100925.47;10464260;28;20041;-73
2021/10/24 20:27:23;;;;;;;8.82;6.65;;;;;;;3.69;76.00;100910.94;10465164;28;20052;-73
2021/10/24 20:32:25;;;;;;;8.98;6.15;;;;;;;3.63;75.61;100910.88;10464266;28;20052;-73
2021/10/24 20:37:26;;;;;;;8.95;7.43;;;;;;;3.60;76.03;100909.97;10464437;28;20045;-72
2021/10/24 20:42:28;;;;;;;7.72;6.05;;;;;;;3.47;76.01;100898.56;10462604;28;20056;-72
2021/10/24 20:47:32;;;;;;;7.38;6.38;;;;;;;3.40;76.39;100902.81;10464179;28;20372;-71
2021/10/24 20:52:34;;;;;;;10.95;7.07;;;;;;;3.33;76.29;100902.75;10464360;28;20041;-73
2021/10/24 20:57:36;;;;;;;11.70;6.82;;;;;;;3.04;76.98;100900.63;10463474;28;20045;-72
2021/10/24 21:02:38;;;;;;;9.20;5.75;;;;;;;3.08;77.37;100898.97;10462954;28;20404;-73
2021/10/24 21:07:39;;;;;;;11.80;7.35;;;;;;;2.96;77.70;100897.94;10461818;28;20099;-72
2021/10/24 21:12:42;;;;;;;7.85;5.82;;;;;;;3.02;77.97;100894.56;10462847;28;20064;-72
2021/10/24 21:17:44;;;;;;;7.75;6.10;;;;;;;3.07;77.18;100886.84;10463188;28;20052;-72
2021/10/24 21:22:45;;;;;;;9.80;5.97;;;;;;;3.04;77.81;100888.53;10463030;28;20487;-70
2021/10/24 21:27:47;;;;;;;5.07;4.53;;;;;;;2.90;77.83;100887.47;10462713;28;20399;-72
2021/10/24 21:32:48;;;;;;;9.52;5.28;;;;;;;2.98;77.88;100883.25;10463197;28;20063;-71
2021/10/24 21:37:51;;;;;;;7.35;5.28;;;;;;;2.91;78.08;100883.16;10461200;28;20477;-71
2021/10/24 21:42:53;;;;;;;9.18;5.18;;;;;;;2.98;78.14;100885.88;10462026;28;20049;-72
2021/10/24 21:47:54;;;;;;;6.35;5.07;;;;;;;2.83;78.50;100871.78;10462605;28;20434;-71
2021/10/24 21:52:56;;;;;;;7.15;5.97;;;;;;;2.73;78.09;100868.22;10461757;28;20041;-71
2021/10/24 21:57:57;;;;;;;9.07;5.72;;;;;;;2.70;78.20;100879.44;10460007;28;20060;-71
2021/10/24 22:02:59;;;;;;;6.63;5.78;;;;;;;2.64;78.43;100875.88;10460475;28;20544;-71
2021/10/24 22:08:00;;;;;;;8.77;5.97;;;;;;;2.61;78.55;100873.22;10460973;28;20037;-72
2021/10/24 22:13:17;;;;;;;9.50;6.38;;;;;;;2.81;77.66;100871.78;10461228;28;20040;-71
2021/10/24 22:18:19;;;;;;;7.88;5.25;;;;;;;2.74;77.49;100864.75;10460646;28;20037;-70
2021/10/24 22:23:21;;;;;;;5.93;5.07;;;;;;;2.72;77.63;100858.69;10458958;28;20076;-70
2021/10/24 22:28:23;;;;;;;5.43;4.88;;;;;;;2.81;77.88;100857.94;10459978;28;20503;-70
2021/10/24 22:33:24;;;;;;;7.35;5.50;;;;;;;2.90;77.13;100853.72;10459956;28;20045;-69
2021/10/24 22:38:27;;;;;;;6.03;5.43;;;;;;;2.88;77.43;100858.03;10459360;28;20048;-70
2021/10/24 22:43:28;;;;;;;6.30;5.50;;;;;;;2.83;77.48;100856.22;10457902;28;20110;-70
2021/10/24 22:48:30;;;;;;;6.00;5.10;;;;;;;2.77;77.29;100851.81;10459650;28;20092;-70
2021/10/24 22:53:33;;;;;;;8.65;4.97;;;;;;;2.94;77.01;100849.44;10459118;28;20033;-71
2021/10/24 22:58:36;;;;;;;8.55;5.63;;;;;;;2.87;77.22;100850.22;10458076;28;20090;-71
2021/10/24 23:03:37;;;;;;;5.97;5.10;;;;;;;2.80;77.05;100846.69;10458195;28;20049;-71
2021/10/24 23:08:40;;;;;;;7.68;5.28;;;;;;;2.83;77.15;100849.28;10458885;28;20124;-70
2021/10/24 23:13:42;;;;;;;6.35;5.15;;;;;;;2.73;77.27;100853.50;10457722;28;20449;-70
2021/10/24 23:18:43;;;;;;;7.97;5.03;;;;;;;2.65;77.39;100854.25;10456910;28;20128;-70
2021/10/24 23:23:46;;;;;;;8.00;5.22;;;;;;;2.67;77.15;100842.19;10455637;28;20045;-70
2021/10/24 23:28:47;;;;;;;7.10;4.88;;;;;;;2.53;77.64;100847.19;10456127;28;20045;-70
2021/10/24 23:33:53;;;;;;;6.22;5.00;;;;;;;2.44;77.69;100849.66;10457196;28;20106;-71
2021/10/24 23:38:57;;;;;;;8.80;4.95;;;;;;;2.46;77.86;100850.53;10458050;28;20131;-70
2021/10/24 23:43:58;;;;;;;7.47;5.30;;;;;;;2.40;77.78;100846.13;10457014;28;20037;-70